createdAt,value
2017-08-18T00:01:31.148Z,80.50
2017-08-18T00:03:57.453Z,79.90
2017-08-18T00:06:23.745Z,79.90
2017-08-18T00:08:50.033Z,80.70
2017-08-18T00:11:16.305Z,80.10
2017-08-18T00:13:42.592Z,80.00
2017-08-18T00:16:09.785Z,79.90
2017-08-18T00:18:36.054Z,79.70
2017-08-18T00:21:02.378Z,79.40
2017-08-18T00:23:28.659Z,79.60
2017-08-18T00:25:54.945Z,79.50
2017-08-18T00:28:21.213Z,79.60
2017-08-18T00:30:48.482Z,79.70
2017-08-18T00:33:14.782Z,79.40
2017-08-18T00:35:41.131Z,79.20
2017-08-18T00:38:07.446Z,79.20
2017-08-18T00:40:33.784Z,79.40
2017-08-18T00:43:00.112Z,79.30
2017-08-18T00:45:26.420Z,79.30
2017-08-18T00:47:54.839Z,79.00
2017-08-18T00:50:21.101Z,78.90
2017-08-18T00:52:47.392Z,79.00
2017-08-18T00:55:13.693Z,80.30
2017-08-18T00:57:40.008Z,81.30
2017-08-18T01:00:06.270Z,80.70
2017-08-18T01:02:32.568Z,80.30
2017-08-18T01:04:58.853Z,80.10
2017-08-18T01:07:25.166Z,80.50
2017-08-18T01:09:51.478Z,81.10
2017-08-18T01:12:17.788Z,81.30
2017-08-18T01:14:44.048Z,81.00
2017-08-18T01:17:10.340Z,80.50
2017-08-18T01:19:36.659Z,80.20
2017-08-18T01:22:02.901Z,79.80
2017-08-18T01:24:29.213Z,79.60
2017-08-18T01:26:55.478Z,80.00
2017-08-18T01:29:21.781Z,80.70
2017-08-18T01:31:48.060Z,80.90
2017-08-18T01:34:14.410Z,81.30
2017-08-18T01:36:40.669Z,81.80
2017-08-18T01:39:06.963Z,82.80
2017-08-18T01:41:33.248Z,83.60
2017-08-18T01:43:59.517Z,82.70
2017-08-18T01:46:25.809Z,81.80
2017-08-18T01:48:52.078Z,81.20
2017-08-18T01:51:18.377Z,80.90
2017-08-18T01:53:44.639Z,81.00
2017-08-18T01:56:10.894Z,80.90
2017-08-18T01:58:37.183Z,80.50
2017-08-18T02:01:11.984Z,80.40
2017-08-18T02:03:38.243Z,80.20
2017-08-18T02:06:04.924Z,80.10
2017-08-18T02:08:31.206Z,80.10
2017-08-18T02:10:57.469Z,80.10
2017-08-18T02:13:23.749Z,80.00
2017-08-18T02:15:50.014Z,79.90
2017-08-18T02:18:16.302Z,79.90
2017-08-18T02:20:42.580Z,80.10
2017-08-18T02:23:09.330Z,80.00
2017-08-18T02:25:35.590Z,79.80
2017-08-18T02:28:01.858Z,80.10
2017-08-18T02:30:28.145Z,79.80
2017-08-18T02:32:54.430Z,79.80
2017-08-18T02:35:20.712Z,80.10
2017-08-18T02:37:46.972Z,80.40
2017-08-18T02:40:14.718Z,80.70
2017-08-18T02:42:41.890Z,80.90
2017-08-18T02:45:08.179Z,80.60
2017-08-18T02:47:34.447Z,80.60
2017-08-18T02:50:00.987Z,81.30
2017-08-18T02:52:27.253Z,82.00
2017-08-18T02:54:53.534Z,81.70
2017-08-18T02:57:19.796Z,83.20
2017-08-18T02:59:46.061Z,83.70
2017-08-18T03:02:12.365Z,83.60
2017-08-18T03:04:38.624Z,83.60
2017-08-18T03:07:04.909Z,82.40
2017-08-18T03:09:31.168Z,82.10
2017-08-18T03:11:57.438Z,82.00
2017-08-18T03:14:23.722Z,82.00
2017-08-18T03:16:49.994Z,82.50
2017-08-18T03:19:16.291Z,83.60
2017-08-18T03:21:42.559Z,83.70
2017-08-18T03:24:08.893Z,83.90
2017-08-18T03:26:35.168Z,84.40
2017-08-18T03:29:01.443Z,84.90
2017-08-18T03:31:27.713Z,84.30
2017-08-18T03:33:53.972Z,83.90
2017-08-18T03:36:20.269Z,83.40
2017-08-18T03:38:46.533Z,83.70
2017-08-18T03:41:12.828Z,84.30
2017-08-18T03:43:39.091Z,84.20
2017-08-18T03:46:05.609Z,84.00
2017-08-18T03:48:31.886Z,84.40
2017-08-18T03:50:58.133Z,84.70
2017-08-18T03:53:24.465Z,85.10
2017-08-18T03:55:50.729Z,85.00
2017-08-18T03:58:17.007Z,84.80
2017-08-18T04:00:47.707Z,85.20
2017-08-18T04:03:13.971Z,85.00
2017-08-18T04:05:42.504Z,84.40
2017-08-18T04:08:08.829Z,83.60
2017-08-18T04:10:35.109Z,83.00
2017-08-18T04:13:01.386Z,82.80
2017-08-18T04:15:27.677Z,82.50
2017-08-18T04:17:53.933Z,82.10
2017-08-18T04:20:20.221Z,82.90
2017-08-18T04:22:46.490Z,82.90
2017-08-18T04:25:12.806Z,83.10
2017-08-18T04:27:39.072Z,82.60
2017-08-18T04:30:05.685Z,82.00
2017-08-18T04:32:31.952Z,82.00
2017-08-18T04:34:58.247Z,82.50
2017-08-18T04:37:24.525Z,81.90
2017-08-18T04:39:50.801Z,82.20
2017-08-18T04:42:17.105Z,81.90
2017-08-18T04:44:43.376Z,82.60
2017-08-18T04:47:10.244Z,82.60
2017-08-18T04:49:36.504Z,82.30
2017-08-18T04:52:02.759Z,82.80
2017-08-18T04:54:29.083Z,82.70
2017-08-18T04:56:55.354Z,82.20
2017-08-18T04:59:21.620Z,82.60
2017-08-18T05:01:47.884Z,83.00
2017-08-18T05:04:14.159Z,82.80
2017-08-18T05:06:40.434Z,82.90
2017-08-18T05:09:06.740Z,82.90
2017-08-18T05:11:33.047Z,82.80
2017-08-18T05:13:59.323Z,83.50
2017-08-18T05:16:25.598Z,83.70
2017-08-18T05:18:51.870Z,83.50
2017-08-18T05:21:18.472Z,83.40
2017-08-18T05:23:44.759Z,82.70
2017-08-18T05:26:11.045Z,82.10
2017-08-18T05:28:37.316Z,82.10
2017-08-18T05:31:03.599Z,82.10
2017-08-18T05:33:29.890Z,82.20
2017-08-18T05:35:56.173Z,82.20
2017-08-18T05:38:23.347Z,82.10
2017-08-18T05:40:49.610Z,82.40
2017-08-18T05:43:15.922Z,82.00
2017-08-18T05:45:42.189Z,82.20
2017-08-18T05:48:08.469Z,82.60
2017-08-18T05:50:34.745Z,83.10
2017-08-18T05:53:01.024Z,83.60
2017-08-18T05:55:27.292Z,82.40
2017-08-18T05:57:53.556Z,82.00
2017-08-18T06:00:19.842Z,81.10
2017-08-18T06:02:46.428Z,81.00
2017-08-18T06:05:12.747Z,81.00
2017-08-18T06:07:38.996Z,80.80
2017-08-18T06:10:05.333Z,80.50
2017-08-18T06:12:31.605Z,80.20
2017-08-18T06:14:57.880Z,80.10
2017-08-18T06:17:25.157Z,80.80
2017-08-18T06:19:51.437Z,80.10
2017-08-18T06:22:17.701Z,79.60
2017-08-18T06:24:43.998Z,80.20
2017-08-18T06:27:10.291Z,79.90
2017-08-18T06:29:37.002Z,79.90
2017-08-18T06:32:03.274Z,80.20
2017-08-18T06:34:29.572Z,79.80
2017-08-18T06:36:55.868Z,79.90
2017-08-18T06:39:22.145Z,80.10
2017-08-18T06:41:48.442Z,80.20
2017-08-18T06:44:14.712Z,79.80
2017-08-18T06:46:40.991Z,80.00
2017-08-18T06:49:07.293Z,79.80
2017-08-18T06:51:33.597Z,79.80
2017-08-18T06:53:59.860Z,79.80
2017-08-18T06:56:26.146Z,79.40
2017-08-18T06:58:52.447Z,78.90
2017-08-18T07:01:18.713Z,79.10
2017-08-18T07:03:45.002Z,78.60
2017-08-18T07:06:11.278Z,78.40
2017-08-18T07:08:37.576Z,78.10
2017-08-18T07:11:05.413Z,76.30
2017-08-18T07:13:31.677Z,76.40
2017-08-18T07:15:59.599Z,75.20
2017-08-18T07:18:26.484Z,75.60
2017-08-18T07:21:03.373Z,75.30
2017-08-18T07:23:32.658Z,73.70
2017-08-18T07:25:59.500Z,73.30
2017-08-18T07:28:26.346Z,72.70
2017-08-18T07:30:56.068Z,72.40
2017-08-18T07:33:22.797Z,72.50
2017-08-18T07:35:49.078Z,71.70
2017-08-18T07:38:16.287Z,72.20
2017-08-18T07:40:42.575Z,72.40
2017-08-18T07:43:08.859Z,69.90
2017-08-18T07:45:37.243Z,70.30
2017-08-18T07:48:04.351Z,69.50
2017-08-18T07:50:33.854Z,70.20
2017-08-18T07:53:00.130Z,69.70
2017-08-18T07:55:26.389Z,71.50
2017-08-18T07:57:52.672Z,71.10
2017-08-18T08:00:20.520Z,70.50
2017-08-18T08:02:46.825Z,69.00
2017-08-18T08:05:13.090Z,69.10
2017-08-18T08:07:39.381Z,70.30
2017-08-18T08:10:05.657Z,71.50
2017-08-18T08:12:31.935Z,69.40
2017-08-18T08:14:58.197Z,67.90
2017-08-18T08:17:24.485Z,66.70
2017-08-18T08:19:50.746Z,68.70
2017-08-18T08:22:17.024Z,67.70
2017-08-18T08:24:43.273Z,68.20
2017-08-18T08:27:09.567Z,68.50
2017-08-18T08:29:36.172Z,68.40
2017-08-18T08:32:02.442Z,69.30
2017-08-18T08:34:28.718Z,69.80
2017-08-18T08:36:55.059Z,69.00
2017-08-18T08:39:21.351Z,69.20
2017-08-18T08:41:47.632Z,69.10
2017-08-18T08:44:13.891Z,69.50
2017-08-18T08:46:40.182Z,67.60
2017-08-18T08:49:06.461Z,65.40
2017-08-18T08:51:32.734Z,65.20
2017-08-18T08:53:58.996Z,63.10
2017-08-18T08:56:25.498Z,63.60
2017-08-18T08:58:51.849Z,62.60
2017-08-18T09:01:18.163Z,61.70
2017-08-18T09:03:44.467Z,61.80
2017-08-18T09:06:10.748Z,63.10
2017-08-18T09:08:37.025Z,62.20
2017-08-18T09:11:03.307Z,64.00
2017-08-18T09:13:29.905Z,64.20
2017-08-18T09:15:56.241Z,61.80
2017-08-18T09:18:22.541Z,62.20
2017-08-18T09:20:48.812Z,62.20
2017-08-18T09:23:15.882Z,61.50
2017-08-18T09:25:42.158Z,61.80
2017-08-18T09:28:09.565Z,60.80
2017-08-18T09:30:35.826Z,58.10
2017-08-18T09:33:02.149Z,58.30
2017-08-18T09:35:28.466Z,58.30
2017-08-18T09:37:54.730Z,58.40
2017-08-18T09:40:21.061Z,56.40
2017-08-18T09:42:47.342Z,56.30
2017-08-18T09:45:13.967Z,56.30
2017-08-18T09:47:40.264Z,57.50
2017-08-18T09:50:18.727Z,55.40
2017-08-18T09:52:57.195Z,55.50
2017-08-18T10:08:51.873Z,55.20
2017-08-18T10:11:18.155Z,55.00
2017-08-18T10:13:44.431Z,55.90
2017-08-18T10:16:10.703Z,54.90
2017-08-18T10:18:37.018Z,57.00
2017-08-18T10:21:03.318Z,55.70
2017-08-18T10:23:29.589Z,55.10
2017-08-18T10:25:55.862Z,54.60
2017-08-18T10:28:22.173Z,55.40
2017-08-18T10:30:48.432Z,55.20
2017-08-18T10:33:15.151Z,55.40
2017-08-18T10:35:41.493Z,57.00
2017-08-18T10:38:07.778Z,55.80
2017-08-18T10:40:34.057Z,56.90
2017-08-18T10:43:00.315Z,56.20
2017-08-18T10:45:26.620Z,54.40
2017-08-18T10:47:53.167Z,53.50
2017-08-18T10:50:19.448Z,55.90
2017-08-18T10:52:45.710Z,55.60
2017-08-18T10:55:11.990Z,53.40
2017-08-18T10:57:38.312Z,54.00
2017-08-18T11:00:04.581Z,53.70
2017-08-18T11:02:30.892Z,52.40
2017-08-18T11:04:57.162Z,52.30
2017-08-18T11:07:23.509Z,52.10
2017-08-18T11:09:49.774Z,50.10
2017-08-18T11:12:16.386Z,49.80
2017-08-18T11:14:42.656Z,48.80
2017-08-18T11:17:08.955Z,45.70
2017-08-18T11:19:35.283Z,45.10
2017-08-18T11:22:01.572Z,45.60
2017-08-18T11:24:27.882Z,45.40
2017-08-18T11:26:54.150Z,45.50
2017-08-18T11:29:20.458Z,43.70
2017-08-18T11:31:47.601Z,46.80
2017-08-18T11:34:13.922Z,44.40
2017-08-18T11:36:40.247Z,46.80
2017-08-18T11:39:06.952Z,42.70
2017-08-18T11:41:33.289Z,43.20
2017-08-18T11:43:59.574Z,40.80
2017-08-18T11:46:25.865Z,38.00
2017-08-18T11:48:52.197Z,37.40
2017-08-18T11:51:18.504Z,36.40
2017-08-18T11:53:44.782Z,36.60
2017-08-18T11:56:11.091Z,34.90
2017-08-18T11:58:37.357Z,33.00
2017-08-18T12:01:03.641Z,34.10
2017-08-18T12:03:29.921Z,32.70
2017-08-18T12:05:56.213Z,32.80
2017-08-18T12:08:22.515Z,31.20
2017-08-18T12:10:49.138Z,29.00
2017-08-18T12:13:15.428Z,28.70
2017-08-18T12:15:41.704Z,25.60
2017-08-18T12:18:08.935Z,22.20
2017-08-18T12:20:35.239Z,21.00
2017-08-18T12:23:01.517Z,19.50
2017-08-18T12:25:40.118Z,19.50
2017-08-18T12:28:07.412Z,19.20
2017-08-18T12:30:33.688Z,21.80
2017-08-18T12:33:00.040Z,21.00
2017-08-18T12:35:27.290Z,20.10
2017-08-18T12:37:53.595Z,21.50
2017-08-18T12:40:19.892Z,21.90
2017-08-18T12:42:46.164Z,19.70
2017-08-18T12:45:12.506Z,20.90
2017-08-18T12:47:38.805Z,18.00
2017-08-18T12:50:05.154Z,18.00
2017-08-18T12:52:31.473Z,17.60
2017-08-18T12:54:57.772Z,17.60
2017-08-18T12:57:24.050Z,17.40
2017-08-18T12:59:50.319Z,18.40
2017-08-18T13:02:16.596Z,17.30
2017-08-18T13:04:47.720Z,16.90
2017-08-18T13:07:14.035Z,17.50
2017-08-18T13:09:40.292Z,16.30
2017-08-18T13:12:07.152Z,16.00
2017-08-18T13:14:33.438Z,17.00
2017-08-18T13:16:59.779Z,16.50
2017-08-18T13:19:26.053Z,16.70
2017-08-18T13:21:52.699Z,15.60
2017-08-18T13:24:19.004Z,16.70
2017-08-18T13:26:45.297Z,16.20
2017-08-18T13:29:11.580Z,16.10
2017-08-18T13:31:37.903Z,16.40
2017-08-18T13:34:04.199Z,16.10
2017-08-18T13:36:30.505Z,15.60
2017-08-18T13:38:56.833Z,15.60
2017-08-18T13:41:23.114Z,15.30
2017-08-18T13:43:49.663Z,16.40
2017-08-18T13:46:15.937Z,16.20
2017-08-18T13:48:42.194Z,16.10
2017-08-18T13:51:08.495Z,16.50
2017-08-18T13:53:34.811Z,16.80
2017-08-18T13:56:01.959Z,14.90
2017-08-18T13:58:28.231Z,15.90
2017-08-18T14:00:54.529Z,16.10
2017-08-18T14:03:20.801Z,16.30
2017-08-18T14:05:47.107Z,14.80
2017-08-18T14:08:13.472Z,14.80
2017-08-18T14:10:40.116Z,15.40
2017-08-18T14:13:06.406Z,16.00
2017-08-18T14:15:32.677Z,17.10
2017-08-18T14:17:58.971Z,17.50
2017-08-18T14:20:25.236Z,16.50
2017-08-18T14:22:51.518Z,16.90
2017-08-18T14:38:35.458Z,17.10
2017-08-18T14:41:01.744Z,17.00
2017-08-18T14:43:28.252Z,16.50
2017-08-18T14:45:54.553Z,16.70
2017-08-18T14:48:20.826Z,16.00
2017-08-18T14:50:47.129Z,16.80
2017-08-18T14:53:13.682Z,18.80
2017-08-18T14:55:39.938Z,18.70
2017-08-18T14:58:06.230Z,18.90
2017-08-18T15:00:32.515Z,19.10
2017-08-18T15:02:58.845Z,18.10
2017-08-18T15:05:25.151Z,18.70
2017-08-18T15:07:51.436Z,19.50
2017-08-18T15:10:17.726Z,18.50
2017-08-18T15:12:43.993Z,18.70
2017-08-18T15:15:10.663Z,19.50
2017-08-18T15:17:36.959Z,21.20
2017-08-18T15:20:03.234Z,21.50
2017-08-18T15:22:29.521Z,22.50
2017-08-18T15:24:55.835Z,25.50
2017-08-18T15:27:22.127Z,30.40
2017-08-18T15:29:49.170Z,29.80
2017-08-18T15:32:15.461Z,31.70
2017-08-18T15:34:41.763Z,33.10
2017-08-18T15:37:08.348Z,32.20
2017-08-18T15:39:34.647Z,33.60
2017-08-18T15:42:00.921Z,34.50
2017-08-18T15:44:27.256Z,35.40
2017-08-18T15:46:53.533Z,37.30
2017-08-18T15:49:19.831Z,36.40
2017-08-18T15:51:46.153Z,37.90
2017-08-18T15:54:12.431Z,38.40
2017-08-18T15:56:38.718Z,39.40
2017-08-18T15:59:05.422Z,39.90
2017-08-18T16:01:31.696Z,39.90
2017-08-18T16:03:57.966Z,40.20
2017-08-18T16:06:24.273Z,40.50
2017-08-18T16:08:50.548Z,41.70
2017-08-18T16:11:16.886Z,41.60
2017-08-18T16:13:43.152Z,41.50
2017-08-18T16:16:09.428Z,42.00
2017-08-18T16:18:35.715Z,41.50
2017-08-18T16:21:02.007Z,42.00
2017-08-18T16:23:28.298Z,43.90
2017-08-18T16:25:54.947Z,42.00
2017-08-18T16:28:21.286Z,42.30
2017-08-18T16:30:47.552Z,45.00
2017-08-18T16:33:14.880Z,48.30
2017-08-18T16:35:41.140Z,49.40
2017-08-18T16:38:07.432Z,49.90
2017-08-18T16:40:33.682Z,50.00
2017-08-18T16:42:59.976Z,48.10
2017-08-18T16:45:26.274Z,47.90
2017-08-18T16:47:52.621Z,48.40
2017-08-18T16:50:18.910Z,48.30
2017-08-18T16:52:45.201Z,48.90
2017-08-18T16:55:11.526Z,48.10
2017-08-18T16:57:38.222Z,50.40
2017-08-18T17:00:04.690Z,54.60
2017-08-18T17:02:31.066Z,56.50
2017-08-18T17:04:57.345Z,58.30
2017-08-18T17:07:23.631Z,58.50
2017-08-18T17:09:49.938Z,59.70
2017-08-18T17:12:16.237Z,61.50
2017-08-18T17:14:42.565Z,62.50
2017-08-18T17:17:08.848Z,64.10
2017-08-18T17:19:35.149Z,64.80
2017-08-18T17:22:01.442Z,65.90
2017-08-18T17:24:28.529Z,67.60
2017-08-18T17:26:55.203Z,68.30
2017-08-18T17:29:21.489Z,69.10
2017-08-18T17:31:47.755Z,68.80
2017-08-18T17:34:14.027Z,67.80
2017-08-18T17:36:40.389Z,66.20
2017-08-18T17:39:06.680Z,65.80
2017-08-18T17:41:32.945Z,65.50
2017-08-18T17:43:59.226Z,65.90
2017-08-18T17:46:26.577Z,65.00
2017-08-18T17:48:52.882Z,63.60
2017-08-18T17:51:19.185Z,62.90
2017-08-18T17:53:45.489Z,62.60
2017-08-18T17:56:11.790Z,63.10
2017-08-18T17:58:38.089Z,63.40
2017-08-18T18:01:04.686Z,63.40
2017-08-18T18:03:31.037Z,64.10
2017-08-18T18:05:57.355Z,68.40
2017-08-18T18:08:23.977Z,72.40
2017-08-18T18:10:50.259Z,79.40
2017-08-18T18:13:16.508Z,80.50
2017-08-18T18:15:51.586Z,84.40
2017-08-18T18:18:17.867Z,87.20
2017-08-18T18:20:44.170Z,88.00
2017-08-18T18:23:10.430Z,87.70
2017-08-18T18:25:36.725Z,91.80
2017-08-18T18:28:03.104Z,92.90
2017-08-18T18:30:30.499Z,92.30
2017-08-18T18:32:56.773Z,90.20
2017-08-18T18:35:23.087Z,90.90
2017-08-18T18:37:49.683Z,88.40
2017-08-18T18:40:16.027Z,88.30
2017-08-18T18:42:42.413Z,87.30
2017-08-18T18:45:08.790Z,88.00
2017-08-18T18:47:35.100Z,86.20
2017-08-18T18:50:01.397Z,85.20
2017-08-18T18:52:27.729Z,85.70
2017-08-18T18:54:54.366Z,85.90
2017-08-18T18:57:20.667Z,85.60
2017-08-18T18:59:47.005Z,81.90
2017-08-18T19:02:13.310Z,82.60
2017-08-18T19:04:39.647Z,81.80
2017-08-18T19:07:05.992Z,80.30
2017-08-18T19:09:32.279Z,79.20
2017-08-18T19:11:59.616Z,80.50
2017-08-18T19:14:25.926Z,80.90
2017-08-18T19:16:52.611Z,79.90
2017-08-18T19:19:18.889Z,82.10
2017-08-18T19:21:45.166Z,81.00
2017-08-18T19:24:12.067Z,81.60
2017-08-18T19:26:38.815Z,82.10
2017-08-18T19:29:06.567Z,81.10
2017-08-18T19:31:32.887Z,81.30
2017-08-18T19:33:59.787Z,82.30
2017-08-18T19:36:26.147Z,83.90
2017-08-18T19:38:52.438Z,82.80
2017-08-18T19:41:19.225Z,83.80
2017-08-18T19:43:46.170Z,82.80
2017-08-18T19:46:12.457Z,81.80
2017-08-18T19:48:38.816Z,81.70
2017-08-18T19:51:05.104Z,82.90
2017-08-18T19:53:31.415Z,83.70
2017-08-18T19:55:57.717Z,82.00
2017-08-18T19:58:25.411Z,83.60
2017-08-18T20:00:51.757Z,82.20
2017-08-18T20:03:21.029Z,82.50
2017-08-18T20:05:47.341Z,82.20
2017-08-18T20:08:13.656Z,82.90
2017-08-18T20:10:39.940Z,82.50
2017-08-18T20:13:06.253Z,84.10
2017-08-18T20:15:32.585Z,83.10
2017-08-18T20:17:58.954Z,83.50
2017-08-18T20:20:25.290Z,84.40
2017-08-18T20:22:51.625Z,84.70
2017-08-18T20:25:17.912Z,85.40
2017-08-18T20:27:44.249Z,85.90
2017-08-18T20:30:10.559Z,85.10
2017-08-18T20:32:36.820Z,84.90
2017-08-18T20:35:03.936Z,85.50
2017-08-18T20:37:30.282Z,86.00
2017-08-18T20:39:56.617Z,85.70
2017-08-18T20:42:22.958Z,87.20
2017-08-18T20:44:49.291Z,86.30
2017-08-18T20:47:16.329Z,85.80
2017-08-18T20:49:42.993Z,85.80
2017-08-18T20:52:09.306Z,84.80
2017-08-18T20:54:35.604Z,84.90
2017-08-18T20:57:01.876Z,85.30
2017-08-18T20:59:28.214Z,84.80
2017-08-18T21:01:54.516Z,84.50
2017-08-18T21:04:20.814Z,84.70
2017-08-18T21:06:47.415Z,85.20
2017-08-18T21:09:13.761Z,84.70
2017-08-18T21:11:40.967Z,85.20
2017-08-18T21:14:07.279Z,84.30
2017-08-18T21:16:33.579Z,84.90
2017-08-18T21:19:00.562Z,84.90
2017-08-18T21:21:26.841Z,84.90
2017-08-18T21:23:53.122Z,84.00
2017-08-18T21:26:19.462Z,83.40
2017-08-18T21:28:45.758Z,84.30
2017-08-18T21:31:12.069Z,84.30
2017-08-18T21:33:38.330Z,84.20
2017-08-18T21:36:04.663Z,85.10
2017-08-18T21:38:30.946Z,84.20
2017-08-18T21:40:57.529Z,83.60
2017-08-18T21:46:07.494Z,84.30
2017-08-18T21:48:33.748Z,83.40
2017-08-18T21:51:00.047Z,83.60
2017-08-18T21:53:26.335Z,83.40
2017-08-18T21:55:52.648Z,83.20
2017-08-18T21:58:18.933Z,82.80
2017-08-18T22:00:45.229Z,81.80
2017-08-18T22:03:11.517Z,82.70
2017-08-18T22:05:37.836Z,82.80
2017-08-18T22:08:04.106Z,82.80
2017-08-18T22:10:30.726Z,81.80
2017-08-18T22:12:57.013Z,81.80
2017-08-18T22:15:23.281Z,82.10
2017-08-18T22:17:49.589Z,81.90
2017-08-18T22:20:15.848Z,82.40
2017-08-18T22:22:42.147Z,82.60
2017-08-18T22:25:08.420Z,81.70
2017-08-18T22:27:34.715Z,81.50
2017-08-18T22:30:01.012Z,82.30
2017-08-18T22:32:27.354Z,81.80
2017-08-18T22:34:53.695Z,82.50
2017-08-18T22:37:20.092Z,82.90
2017-08-18T22:39:46.438Z,83.30
2017-08-18T22:42:12.753Z,83.00
2017-08-18T22:44:39.079Z,82.70
2017-08-18T22:47:05.426Z,83.60
2017-08-18T22:49:31.734Z,83.90
2017-08-18T22:51:58.073Z,84.30
2017-08-18T22:54:24.415Z,84.60
2017-08-18T22:56:50.731Z,85.20
2017-08-18T22:59:17.009Z,85.70
2017-08-18T23:01:43.311Z,85.50
2017-08-18T23:04:09.599Z,86.30
2017-08-18T23:06:36.155Z,86.30
2017-08-18T23:09:02.501Z,85.30
2017-08-18T23:11:28.770Z,84.80
2017-08-18T23:13:55.068Z,84.60
2017-08-18T23:16:21.367Z,84.90
2017-08-18T23:18:47.657Z,84.50
2017-08-18T23:21:13.933Z,83.80
2017-08-18T23:23:40.223Z,84.50
2017-08-18T23:26:06.518Z,84.00
2017-08-18T23:28:32.824Z,83.80
2017-08-18T23:30:59.109Z,83.50
2017-08-18T23:33:25.423Z,83.40
2017-08-18T23:35:51.693Z,84.40
2017-08-18T23:38:17.974Z,84.90
2017-08-18T23:40:44.263Z,85.20
2017-08-18T23:43:12.104Z,85.00
2017-08-18T23:45:38.944Z,84.80
2017-08-18T23:48:08.284Z,84.00
2017-08-18T23:50:35.778Z,83.10
2017-08-18T23:53:03.019Z,83.60
2017-08-18T23:55:29.329Z,84.30
2017-08-18T23:57:55.690Z,83.80
